createdAt,value
2022-11-12T00:01:13.428Z,33.03
2022-11-12T00:04:01.378Z,34.72
2022-11-12T00:06:49.308Z,46.92
2022-11-12T00:09:39.767Z,27.63
2022-11-12T00:12:27.637Z,46.28
2022-11-12T00:15:15.893Z,39.47
2022-11-12T00:18:03.968Z,24.90
2022-11-12T00:20:52.015Z,30.90
2022-11-12T00:23:40.082Z,47.72
2022-11-12T00:26:28.196Z,31.80
2022-11-12T00:29:16.191Z,44.13
2022-11-12T00:32:05.495Z,28.13
2022-11-12T00:34:53.516Z,30.95
2022-11-12T00:37:41.649Z,33.58
2022-11-12T00:40:30.140Z,40.58
2022-11-12T00:43:18.197Z,25.83
2022-11-12T00:46:06.013Z,27.52
2022-11-12T00:48:54.041Z,46.53
2022-11-12T00:51:42.293Z,34.45
2022-11-12T00:54:33.918Z,33.65
2022-11-12T00:57:24.524Z,22.02
2022-11-12T01:00:17.426Z,26.30
2022-11-12T01:03:05.315Z,33.20
2022-11-12T01:05:56.212Z,39.38
2022-11-12T01:08:44.760Z,45.20
2022-11-12T01:11:32.846Z,28.80
2022-11-12T01:14:20.739Z,27.90
2022-11-12T01:17:10.801Z,47.30
2022-11-12T01:19:58.917Z,29.42
2022-11-12T01:22:46.874Z,39.63
2022-11-12T01:25:38.691Z,36.85
2022-11-12T01:28:26.772Z,39.53
2022-11-12T01:31:38.598Z,33.00
2022-11-12T01:34:26.989Z,31.30
2022-11-12T01:37:14.879Z,45.28
2022-11-12T01:40:02.895Z,40.03
2022-11-12T01:42:54.341Z,35.50
2022-11-12T01:45:46.171Z,50.00
2022-11-12T01:48:41.424Z,34.22
2022-11-12T01:51:44.642Z,38.05
2022-11-12T01:54:32.577Z,42.70
2022-11-12T01:57:39.585Z,50.75
2022-11-12T02:00:27.858Z,39.50
2022-11-12T02:03:23.775Z,43.60
2022-11-12T02:06:15.560Z,53.58
2022-11-12T02:09:06.410Z,35.13
2022-11-12T02:11:54.581Z,35.28
2022-11-12T02:14:42.404Z,28.27
2022-11-12T02:17:30.817Z,39.35
2022-11-12T02:20:19.064Z,37.72
2022-11-12T02:23:08.301Z,43.47
2022-11-12T02:25:58.197Z,37.08
2022-11-12T02:28:46.088Z,46.95
2022-11-12T02:31:33.970Z,32.42
2022-11-12T02:34:22.079Z,47.33
2022-11-12T02:37:10.061Z,42.78
2022-11-12T02:39:58.015Z,43.42
2022-11-12T02:42:45.852Z,31.92
2022-11-12T02:45:34.054Z,41.60
2022-11-12T02:48:25.312Z,44.65
2022-11-12T02:51:16.381Z,44.92
2022-11-12T02:54:04.606Z,35.67
2022-11-12T02:56:52.591Z,30.02
2022-11-12T02:59:40.642Z,37.65
2022-11-12T03:02:28.724Z,43.20
2022-11-12T03:05:17.016Z,45.85
2022-11-12T03:08:09.577Z,43.33
2022-11-12T03:10:57.515Z,41.10
2022-11-12T03:13:45.455Z,29.38
2022-11-12T03:16:33.797Z,40.65
2022-11-12T03:19:21.933Z,38.97
2022-11-12T03:22:10.341Z,27.35
2022-11-12T03:24:58.333Z,45.42
2022-11-12T03:27:46.262Z,39.75
2022-11-12T03:30:37.798Z,36.85
2022-11-12T03:33:26.030Z,39.75
2022-11-12T03:36:14.121Z,31.95
2022-11-12T03:39:02.284Z,38.75
2022-11-12T03:41:50.248Z,27.33
2022-11-12T03:44:40.706Z,23.52
2022-11-12T03:47:28.770Z,32.10
2022-11-12T03:50:19.396Z,26.65
2022-11-12T03:53:08.125Z,28.70
2022-11-12T03:55:56.034Z,33.50
2022-11-12T03:58:43.955Z,26.35
2022-11-12T04:01:32.351Z,33.63
2022-11-12T04:04:20.186Z,40.60
2022-11-12T04:07:27.452Z,34.35
2022-11-12T04:10:15.357Z,32.05
2022-11-12T04:13:21.859Z,34.47
2022-11-12T04:16:38.220Z,46.20
2022-11-12T04:19:44.728Z,24.83
2022-11-12T04:22:32.796Z,31.50
2022-11-12T04:25:39.301Z,33.05
2022-11-12T04:28:27.377Z,37.03
2022-11-12T04:31:15.567Z,41.05
2022-11-12T04:34:22.413Z,33.97
2022-11-12T04:37:10.544Z,39.95
2022-11-12T04:40:21.299Z,39.63
2022-11-12T04:43:32.299Z,41.47
2022-11-12T04:46:20.230Z,39.10
2022-11-12T04:49:08.293Z,43.83
2022-11-12T04:52:08.203Z,36.75
2022-11-12T04:54:56.211Z,43.78
2022-11-12T04:57:44.118Z,39.40
2022-11-12T05:00:32.140Z,34.97
2022-11-12T05:03:20.102Z,40.72
2022-11-12T05:06:29.825Z,40.13
2022-11-12T05:09:19.698Z,51.70
2022-11-12T05:12:08.136Z,40.50
2022-11-12T05:14:56.028Z,46.63
2022-11-12T05:17:44.528Z,35.25
2022-11-12T05:20:32.358Z,40.10
2022-11-12T05:23:20.253Z,26.85
2022-11-12T05:26:08.133Z,41.05
2022-11-12T05:28:56.017Z,37.17
2022-11-12T05:31:44.078Z,45.67
2022-11-12T05:34:32.400Z,30.27
2022-11-12T05:37:21.046Z,31.33
2022-11-12T05:40:09.863Z,34.65
2022-11-12T05:42:57.841Z,35.63
2022-11-12T05:45:45.767Z,32.97
2022-11-12T05:48:33.982Z,38.65
2022-11-12T05:51:21.943Z,37.83
2022-11-12T05:54:12.760Z,32.80
2022-11-12T05:57:00.642Z,35.45
2022-11-12T05:59:48.523Z,31.65
2022-11-12T06:02:36.549Z,32.53
2022-11-12T06:05:24.667Z,32.78
2022-11-12T06:08:12.659Z,37.63
2022-11-12T06:11:00.716Z,24.80
2022-11-12T06:13:48.646Z,20.63
2022-11-12T06:16:36.773Z,32.22
2022-11-12T06:19:24.749Z,32.15
2022-11-12T06:22:12.713Z,24.77
2022-11-12T06:25:00.861Z,25.58
2022-11-12T06:27:49.106Z,26.92
2022-11-12T06:30:37.169Z,22.50
2022-11-12T06:33:25.107Z,18.17
2022-11-12T06:36:16.438Z,19.23
2022-11-12T06:39:04.588Z,20.52
2022-11-12T06:41:52.740Z,21.35
2022-11-12T06:44:40.731Z,22.20
2022-11-12T06:47:28.595Z,20.08
2022-11-12T06:50:16.651Z,22.58
2022-11-12T06:53:04.609Z,22.90
2022-11-12T06:55:52.793Z,19.38
2022-11-12T06:58:41.710Z,22.67
2022-11-12T07:01:30.187Z,34.33
2022-11-12T07:04:18.406Z,23.20
2022-11-12T07:07:10.577Z,32.38
2022-11-12T07:09:59.164Z,30.00
2022-11-12T07:12:53.194Z,23.48
2022-11-12T07:15:44.036Z,20.58
2022-11-12T07:18:34.793Z,23.48
2022-11-12T07:21:23.452Z,23.90
2022-11-12T07:24:12.384Z,28.10
2022-11-12T07:27:00.872Z,28.55
2022-11-12T07:29:49.329Z,23.02
2022-11-12T07:32:44.164Z,34.50
2022-11-12T07:35:37.667Z,33.83
2022-11-12T07:38:27.046Z,37.45
2022-11-12T07:41:19.407Z,29.60
2022-11-12T07:44:07.669Z,31.55
2022-11-12T07:46:57.359Z,37.35
2022-11-12T07:49:49.011Z,29.65
2022-11-12T07:52:39.811Z,33.55
2022-11-12T07:55:31.629Z,27.00
2022-11-12T07:58:19.710Z,30.92
2022-11-12T08:01:32.340Z,30.17
2022-11-12T08:04:20.184Z,28.92
2022-11-12T08:07:08.291Z,30.13
2022-11-12T08:09:56.286Z,27.52
2022-11-12T08:12:49.926Z,28.60
2022-11-12T08:15:39.457Z,28.70
2022-11-12T08:18:29.092Z,28.77
2022-11-12T08:21:19.144Z,22.80
2022-11-12T08:24:07.480Z,23.65
2022-11-12T08:26:55.293Z,22.75
2022-11-12T08:29:45.430Z,24.33
2022-11-12T08:32:33.355Z,23.38
2022-11-12T08:35:30.393Z,25.58
2022-11-12T08:38:18.349Z,29.02
2022-11-12T08:41:14.750Z,26.70
2022-11-12T08:44:08.281Z,28.40
2022-11-12T08:49:48.020Z,29.50
2022-11-12T08:52:38.921Z,22.13
2022-11-12T08:55:26.878Z,24.33
2022-11-12T08:58:18.240Z,27.15
2022-11-12T09:01:08.580Z,26.73
2022-11-12T09:03:57.085Z,32.17
2022-11-12T09:06:53.612Z,27.17
2022-11-12T09:09:46.053Z,26.05
2022-11-12T09:12:34.664Z,26.83
2022-11-12T09:15:54.703Z,29.42
2022-11-12T09:18:45.722Z,27.75
2022-11-12T09:21:38.693Z,31.77
2022-11-12T09:24:30.192Z,32.20
2022-11-12T09:27:18.409Z,36.58
2022-11-12T09:30:07.500Z,25.88
2022-11-12T09:33:01.501Z,31.55
2022-11-12T09:35:50.972Z,25.23
2022-11-12T09:38:44.966Z,29.92
2022-11-12T09:41:45.323Z,34.03
2022-11-12T09:44:38.803Z,30.25
2022-11-12T09:47:41.661Z,30.05
2022-11-12T09:50:41.069Z,28.17
2022-11-12T09:54:24.325Z,46.08
2022-11-12T09:57:13.793Z,34.63
2022-11-12T10:00:28.035Z,29.35
2022-11-12T10:04:14.648Z,41.42
2022-11-12T10:07:36.891Z,31.90
2022-11-12T10:10:50.657Z,32.85
2022-11-12T10:14:00.460Z,33.87
2022-11-12T10:17:18.571Z,32.58
2022-11-12T10:20:19.922Z,33.05
2022-11-12T10:23:25.988Z,40.92
2022-11-12T10:26:26.580Z,33.45
2022-11-12T10:29:52.432Z,30.15
2022-11-12T10:32:45.613Z,30.05
2022-11-12T10:35:51.888Z,36.08
2022-11-12T10:39:02.388Z,36.60
2022-11-12T10:42:12.863Z,30.73
2022-11-12T10:45:25.352Z,28.85
2022-11-12T10:48:37.391Z,28.55
2022-11-12T10:51:44.050Z,28.00
2022-11-12T10:54:54.947Z,31.50
2022-11-12T10:57:43.288Z,29.25
2022-11-12T11:00:33.103Z,30.45
2022-11-12T11:03:36.399Z,27.33
2022-11-12T11:06:31.823Z,26.50
2022-11-12T11:13:45.749Z,23.95
2022-11-12T11:17:10.756Z,23.98
2022-11-12T11:22:53.798Z,22.77
2022-11-12T11:25:48.613Z,22.60
2022-11-12T11:29:52.823Z,24.00
2022-11-12T11:33:54.832Z,22.60
2022-11-12T11:37:05.579Z,23.08
2022-11-12T11:40:50.294Z,21.67
2022-11-12T11:44:23.020Z,20.57
2022-11-12T11:48:08.491Z,20.48
2022-11-12T11:52:01.643Z,20.08
2022-11-12T11:55:19.971Z,23.02
2022-11-12T11:58:38.376Z,21.23
2022-11-12T12:02:11.158Z,23.52
2022-11-12T12:05:29.799Z,24.95
2022-11-12T12:09:05.344Z,23.70
2022-11-12T12:12:31.425Z,25.23
2022-11-12T12:16:00.278Z,24.42
2022-11-12T12:19:31.891Z,24.77
2022-11-12T12:22:38.457Z,23.52
2022-11-12T12:25:40.818Z,23.63
2022-11-12T12:28:43.820Z,24.42
2022-11-12T12:31:44.692Z,26.33
2022-11-12T12:34:44.538Z,28.52
2022-11-12T12:37:48.533Z,27.35
2022-11-12T12:40:49.902Z,26.98
2022-11-12T12:44:04.641Z,27.80
2022-11-12T12:49:50.499Z,28.02
2022-11-12T12:53:29.163Z,28.15
2022-11-12T12:56:23.188Z,28.02
2022-11-12T12:59:21.437Z,29.83
2022-11-12T13:02:22.246Z,31.23
2022-11-12T13:05:35.103Z,28.92
2022-11-12T13:08:26.985Z,30.15
2022-11-12T13:12:01.718Z,32.03
2022-11-12T13:15:14.218Z,32.50
2022-11-12T13:18:02.043Z,32.35
2022-11-12T13:21:14.556Z,30.55
2022-11-12T13:24:08.908Z,32.40
2022-11-12T13:26:59.645Z,29.92
2022-11-12T13:29:48.378Z,30.88
2022-11-12T13:32:47.303Z,31.40
2022-11-12T13:35:37.946Z,31.85
2022-11-12T13:38:26.591Z,33.60
2022-11-12T13:41:40.098Z,33.95
2022-11-12T13:44:29.266Z,33.47
2022-11-12T13:47:21.742Z,34.58
2022-11-12T13:50:17.008Z,36.17
2022-11-12T13:53:10.569Z,34.28
2022-11-12T13:55:59.241Z,34.33
2022-11-12T13:58:47.191Z,35.72
2022-11-12T14:01:35.108Z,38.35
2022-11-12T14:04:24.610Z,36.42
2022-11-12T14:07:49.415Z,37.78
2022-11-12T14:11:20.400Z,37.88
2022-11-12T14:15:02.164Z,39.30
2022-11-12T14:18:44.061Z,38.60
2022-11-12T14:21:32.067Z,38.65
2022-11-12T14:24:20.969Z,40.25
2022-11-12T14:27:35.321Z,41.40
2022-11-12T14:30:28.341Z,43.22
2022-11-12T14:33:22.432Z,42.35
2022-11-12T14:36:18.954Z,44.10
2022-11-12T14:39:07.443Z,45.40
2022-11-12T14:41:58.511Z,43.78
2022-11-12T14:44:46.625Z,45.47
2022-11-12T14:47:34.601Z,43.00
2022-11-12T14:50:27.411Z,43.20
2022-11-12T14:53:25.594Z,42.42
2022-11-12T14:56:34.189Z,41.92
2022-11-12T14:59:23.505Z,42.22
2022-11-12T15:02:32.520Z,39.72
2022-11-12T15:05:27.406Z,37.25
2022-11-12T15:08:33.621Z,40.42
2022-11-12T15:11:32.212Z,37.85
2022-11-12T15:14:24.209Z,39.28
2022-11-12T15:17:42.587Z,40.63
2022-11-12T15:20:30.594Z,41.63
2022-11-12T15:23:19.158Z,40.90
2022-11-12T15:26:23.444Z,50.78
2022-11-12T15:29:11.200Z,44.78
2022-11-12T15:32:23.923Z,50.33
2022-11-12T15:35:32.052Z,54.15
2022-11-12T15:38:31.699Z,58.35
2022-11-12T15:41:29.448Z,60.13
2022-11-12T15:44:17.321Z,64.57
2022-11-12T15:47:05.389Z,57.63
2022-11-12T15:49:56.711Z,56.30
2022-11-12T15:52:45.346Z,66.18
2022-11-12T15:55:34.920Z,65.82
2022-11-12T15:58:34.325Z,63.00
2022-11-12T16:01:22.316Z,57.65
2022-11-12T16:04:13.245Z,56.35
2022-11-12T16:07:01.384Z,46.63
2022-11-12T16:09:49.341Z,48.75
2022-11-12T16:12:37.408Z,49.65
2022-11-12T16:15:25.862Z,48.30
2022-11-12T16:18:13.865Z,52.00
2022-11-12T16:21:01.761Z,51.65
2022-11-12T16:23:49.605Z,63.72
2022-11-12T16:26:38.283Z,57.50
2022-11-12T16:29:26.190Z,58.22
2022-11-12T16:32:15.305Z,53.13
2022-11-12T16:35:03.321Z,53.45
2022-11-12T16:37:54.436Z,56.33
2022-11-12T16:40:44.194Z,53.55
2022-11-12T16:43:32.054Z,59.47
2022-11-12T16:46:31.278Z,60.72
2022-11-12T16:49:19.177Z,57.35
2022-11-12T16:52:09.350Z,61.13
2022-11-12T16:55:03.076Z,58.60
2022-11-12T16:57:52.384Z,75.35
2022-11-12T17:00:43.166Z,50.25
2022-11-12T17:03:31.113Z,71.22
2022-11-12T17:06:19.699Z,78.95
2022-11-12T17:09:10.826Z,74.28
2022-11-12T17:11:58.602Z,70.22
2022-11-12T17:14:46.886Z,61.35
2022-11-12T17:17:35.049Z,73.43
2022-11-12T17:20:24.107Z,72.55
2022-11-12T17:23:12.200Z,74.63
2022-11-12T17:26:05.722Z,65.63
2022-11-12T17:29:00.161Z,62.45
2022-11-12T17:31:50.378Z,87.97
2022-11-12T17:34:38.309Z,70.68
2022-11-12T17:37:31.577Z,67.55
2022-11-12T17:40:25.704Z,53.07
2022-11-12T17:46:08.586Z,54.78
2022-11-12T17:48:57.102Z,61.83
2022-11-12T17:51:45.122Z,55.72
2022-11-12T17:54:32.963Z,51.42
2022-11-12T17:57:20.858Z,62.15
2022-11-12T18:00:09.903Z,66.82
2022-11-12T18:02:58.629Z,51.80
2022-11-12T18:05:47.958Z,71.90
2022-11-12T18:08:38.700Z,56.13
2022-11-12T18:11:28.918Z,57.88
2022-11-12T18:14:17.189Z,67.07
2022-11-12T18:17:05.214Z,48.63
2022-11-12T18:19:53.246Z,60.08
2022-11-12T18:22:44.882Z,72.55
2022-11-12T18:25:35.522Z,82.25
2022-11-12T18:28:23.513Z,68.20
2022-11-12T18:31:13.284Z,75.25
2022-11-12T18:34:01.413Z,74.95
2022-11-12T18:36:49.368Z,93.53
2022-11-12T18:39:37.509Z,84.72
2022-11-12T18:42:25.439Z,68.05
2022-11-12T18:45:13.878Z,71.05
2022-11-12T18:48:01.765Z,66.18
2022-11-12T18:50:49.627Z,60.30
2022-11-12T18:53:39.430Z,63.83
2022-11-12T18:56:27.240Z,69.07
2022-11-12T18:59:15.171Z,69.28
2022-11-12T19:02:03.387Z,60.65
2022-11-12T19:04:51.465Z,63.15
2022-11-12T19:07:39.381Z,56.50
2022-11-12T19:10:29.539Z,63.03
2022-11-12T19:13:17.473Z,55.10
2022-11-12T19:16:14.192Z,67.40
2022-11-12T19:19:02.099Z,59.33
2022-11-12T19:21:50.276Z,54.78
2022-11-12T19:24:38.424Z,52.65
2022-11-12T19:27:26.472Z,69.75
2022-11-12T19:30:14.831Z,62.75
2022-11-12T19:33:03.192Z,53.72
2022-11-12T19:35:51.342Z,65.13
2022-11-12T19:38:39.639Z,77.05
2022-11-12T19:41:27.601Z,53.35
2022-11-12T19:44:17.759Z,65.40
2022-11-12T19:47:05.875Z,64.60
2022-11-12T19:49:53.996Z,57.78
2022-11-12T19:52:44.881Z,68.68
2022-11-12T19:55:37.202Z,80.75
2022-11-12T19:58:34.491Z,63.58
2022-11-12T20:01:23.158Z,70.85
2022-11-12T20:04:14.373Z,66.18
2022-11-12T20:07:02.812Z,58.22
2022-11-12T20:09:51.023Z,67.00
2022-11-12T20:12:40.333Z,104.63
2022-11-12T20:15:28.433Z,60.80
2022-11-12T20:18:19.876Z,53.47
2022-11-12T20:21:09.227Z,66.93
2022-11-12T20:24:02.785Z,48.70
2022-11-12T20:26:50.917Z,55.70
2022-11-12T20:29:38.970Z,50.30
2022-11-12T20:32:34.176Z,74.50
2022-11-12T20:35:22.589Z,53.30
2022-11-12T20:38:10.657Z,48.13
2022-11-12T20:41:00.226Z,80.55
2022-11-12T20:44:01.543Z,85.05
2022-11-12T20:46:49.684Z,58.65
2022-11-12T20:49:37.610Z,67.57
2022-11-12T20:52:25.538Z,58.33
2022-11-12T20:55:16.412Z,51.20
2022-11-12T20:58:04.273Z,56.33
2022-11-12T21:00:52.147Z,61.25
2022-11-12T21:03:41.392Z,75.43
2022-11-12T21:06:29.689Z,56.47
2022-11-12T21:09:18.546Z,63.75
2022-11-12T21:12:06.992Z,74.82
2022-11-12T21:14:55.032Z,54.92
2022-11-12T21:17:42.887Z,53.88
2022-11-12T21:20:30.663Z,47.70
2022-11-12T21:23:19.569Z,53.50
2022-11-12T21:26:15.785Z,72.38
2022-11-12T21:29:04.862Z,55.63
2022-11-12T21:31:52.948Z,52.20
2022-11-12T21:34:41.445Z,92.95
2022-11-12T21:37:29.702Z,63.90
2022-11-12T21:40:18.155Z,63.15
2022-11-12T21:43:07.355Z,79.53
2022-11-12T21:45:55.859Z,61.42
2022-11-12T21:48:45.011Z,74.75
2022-11-12T21:51:34.053Z,57.78
2022-11-12T21:54:21.938Z,56.70
2022-11-12T21:57:10.737Z,51.60
2022-11-12T22:00:26.676Z,45.05
2022-11-12T22:03:12.251Z,52.25
2022-11-12T22:06:01.759Z,75.68
2022-11-12T22:08:55.147Z,69.57
2022-11-12T22:11:43.264Z,78.47
2022-11-12T22:14:31.191Z,62.15
2022-11-12T22:17:19.105Z,58.45
2022-11-12T22:20:08.002Z,59.72
2022-11-12T22:22:56.153Z,50.97
2022-11-12T22:25:47.263Z,57.42
2022-11-12T22:28:35.951Z,68.63
2022-11-12T22:31:30.119Z,55.78
2022-11-12T22:34:22.965Z,67.57
2022-11-12T22:37:12.304Z,54.42
2022-11-12T22:40:00.220Z,60.00
2022-11-12T22:42:48.526Z,87.45
2022-11-12T22:45:36.665Z,57.17
2022-11-12T22:48:24.898Z,58.95
2022-11-12T22:51:22.722Z,56.30
2022-11-12T22:54:13.329Z,65.55
2022-11-12T22:57:01.233Z,57.83
2022-11-12T22:59:49.114Z,65.13
2022-11-12T23:02:37.281Z,64.95
2022-11-12T23:05:25.269Z,68.97
2022-11-12T23:08:13.062Z,54.17
2022-11-12T23:11:16.482Z,62.35
2022-11-12T23:14:04.488Z,77.50
2022-11-12T23:16:52.288Z,62.45
2022-11-12T23:19:40.113Z,58.95
2022-11-12T23:22:28.018Z,65.53
2022-11-12T23:25:16.067Z,64.03
2022-11-12T23:28:04.337Z,66.15
2022-11-12T23:30:52.287Z,56.70
2022-11-12T23:33:44.497Z,62.92
2022-11-12T23:36:32.597Z,55.92
2022-11-12T23:39:20.441Z,66.00
2022-11-12T23:42:08.382Z,66.18
2022-11-12T23:44:56.376Z,68.40
2022-11-12T23:47:44.226Z,76.82
2022-11-12T23:50:32.166Z,85.68
2022-11-12T23:53:20.282Z,59.63
2022-11-12T23:56:11.465Z,60.55
2022-11-12T23:58:59.404Z,48.00
